sensor_id;sensor_type;location;lat;lon;timestamp;P1;durP1;ratioP1;P2;durP2;ratioP2
14001;SDS011;7076;51.280;12.584;2023-05-07T00:01:50;8.10;;;5.80;;
14001;SDS011;7076;51.280;12.584;2023-05-07T00:06:53;6.35;;;5.55;;
14001;SDS011;7076;51.280;12.584;2023-05-07T00:11:57;7.82;;;5.97;;
14001;SDS011;7076;51.280;12.584;2023-05-07T00:17:01;7.30;;;5.30;;
14001;SDS011;7076;51.280;12.584;2023-05-07T00:22:03;5.75;;;5.15;;
14001;SDS011;7076;51.280;12.584;2023-05-07T00:27:07;5.32;;;4.80;;
14001;SDS011;7076;51.280;12.584;2023-05-07T00:32:11;5.32;;;4.70;;
14001;SDS011;7076;51.280;12.584;2023-05-07T00:37:13;5.40;;;4.80;;
14001;SDS011;7076;51.280;12.584;2023-05-07T00:42:17;6.07;;;5.20;;
14001;SDS011;7076;51.280;12.584;2023-05-07T00:47:20;5.65;;;4.82;;
14001;SDS011;7076;51.280;12.584;2023-05-07T00:52:23;7.53;;;5.50;;
14001;SDS011;7076;51.280;12.584;2023-05-07T00:57:29;5.55;;;5.05;;
14001;SDS011;7076;51.280;12.584;2023-05-07T01:02:35;6.38;;;5.60;;
14001;SDS011;7076;51.280;12.584;2023-05-07T01:07:37;6.13;;;5.53;;
14001;SDS011;7076;51.280;12.584;2023-05-07T01:12:42;6.47;;;5.72;;
14001;SDS011;7076;51.280;12.584;2023-05-07T01:17:45;7.97;;;6.80;;
14001;SDS011;7076;51.280;12.584;2023-05-07T01:23:04;6.78;;;6.03;;
14001;SDS011;7076;51.280;12.584;2023-05-07T01:28:08;8.70;;;7.00;;
14001;SDS011;7076;51.280;12.584;2023-05-07T01:33:13;8.90;;;7.43;;
14001;SDS011;7076;51.280;12.584;2023-05-07T01:38:19;8.57;;;6.80;;
14001;SDS011;7076;51.280;12.584;2023-05-07T01:43:23;9.73;;;7.07;;
14001;SDS011;7076;51.280;12.584;2023-05-07T01:48:26;9.80;;;7.75;;
14001;SDS011;7076;51.280;12.584;2023-05-07T01:53:30;8.95;;;7.65;;
14001;SDS011;7076;51.280;12.584;2023-05-07T01:58:37;10.40;;;7.88;;
14001;SDS011;7076;51.280;12.584;2023-05-07T02:03:40;9.35;;;7.88;;
14001;SDS011;7076;51.280;12.584;2023-05-07T02:08:52;9.15;;;7.72;;
14001;SDS011;7076;51.280;12.584;2023-05-07T02:13:54;9.40;;;8.25;;
14001;SDS011;7076;51.280;12.584;2023-05-07T02:18:57;8.80;;;7.90;;
14001;SDS011;7076;51.280;12.584;2023-05-07T02:24:01;9.38;;;8.38;;
14001;SDS011;7076;51.280;12.584;2023-05-07T02:29:04;10.10;;;8.80;;
14001;SDS011;7076;51.280;12.584;2023-05-07T02:34:07;10.75;;;9.40;;
14001;SDS011;7076;51.280;12.584;2023-05-07T02:39:11;9.60;;;8.60;;
14001;SDS011;7076;51.280;12.584;2023-05-07T02:44:15;10.95;;;8.68;;
14001;SDS011;7076;51.280;12.584;2023-05-07T02:49:20;9.85;;;8.77;;
14001;SDS011;7076;51.280;12.584;2023-05-07T02:54:24;10.13;;;8.23;;
14001;SDS011;7076;51.280;12.584;2023-05-07T02:59:27;9.57;;;8.57;;
14001;SDS011;7076;51.280;12.584;2023-05-07T03:04:31;9.68;;;8.20;;
14001;SDS011;7076;51.280;12.584;2023-05-07T03:09:35;9.20;;;8.30;;
14001;SDS011;7076;51.280;12.584;2023-05-07T03:14:39;11.38;;;7.47;;
14001;SDS011;7076;51.280;12.584;2023-05-07T03:19:42;9.10;;;8.15;;
14001;SDS011;7076;51.280;12.584;2023-05-07T03:24:46;9.90;;;8.43;;
14001;SDS011;7076;51.280;12.584;2023-05-07T03:29:48;10.15;;;8.00;;
14001;SDS011;7076;51.280;12.584;2023-05-07T03:34:51;9.55;;;7.82;;
14001;SDS011;7076;51.280;12.584;2023-05-07T03:39:56;10.05;;;8.00;;
14001;SDS011;7076;51.280;12.584;2023-05-07T03:44:59;9.88;;;8.45;;
14001;SDS011;7076;51.280;12.584;2023-05-07T03:50:03;9.45;;;7.82;;
14001;SDS011;7076;51.280;12.584;2023-05-07T03:55:07;9.57;;;8.13;;
14001;SDS011;7076;51.280;12.584;2023-05-07T04:00:13;8.63;;;7.65;;
14001;SDS011;7076;51.280;12.584;2023-05-07T04:05:22;9.63;;;7.95;;
14001;SDS011;7076;51.280;12.584;2023-05-07T04:10:31;9.77;;;7.25;;
14001;SDS011;7076;51.280;12.584;2023-05-07T04:15:37;8.98;;;7.53;;
14001;SDS011;7076;51.280;12.584;2023-05-07T04:20:43;9.80;;;7.90;;
14001;SDS011;7076;51.280;12.584;2023-05-07T04:25:49;9.65;;;7.72;;
14001;SDS011;7076;51.280;12.584;2023-05-07T04:31:00;8.73;;;7.63;;
14001;SDS011;7076;51.280;12.584;2023-05-07T04:36:05;10.45;;;7.43;;
14001;SDS011;7076;51.280;12.584;2023-05-07T04:41:14;9.32;;;7.15;;
14001;SDS011;7076;51.280;12.584;2023-05-07T04:46:17;8.57;;;6.75;;
14001;SDS011;7076;51.280;12.584;2023-05-07T04:51:22;9.43;;;6.32;;
14001;SDS011;7076;51.280;12.584;2023-05-07T04:56:28;6.53;;;5.82;;
14001;SDS011;7076;51.280;12.584;2023-05-07T05:01:32;8.88;;;7.20;;
14001;SDS011;7076;51.280;12.584;2023-05-07T05:06:35;7.05;;;6.05;;
14001;SDS011;7076;51.280;12.584;2023-05-07T05:11:41;8.35;;;6.28;;
14001;SDS011;7076;51.280;12.584;2023-05-07T05:16:43;6.15;;;5.55;;
14001;SDS011;7076;51.280;12.584;2023-05-07T05:21:46;8.32;;;6.20;;
14001;SDS011;7076;51.280;12.584;2023-05-07T05:26:51;7.15;;;5.97;;
14001;SDS011;7076;51.280;12.584;2023-05-07T05:31:56;9.43;;;6.57;;
14001;SDS011;7076;51.280;12.584;2023-05-07T05:37:00;8.02;;;6.30;;
14001;SDS011;7076;51.280;12.584;2023-05-07T05:42:04;8.65;;;5.90;;
14001;SDS011;7076;51.280;12.584;2023-05-07T05:47:09;8.27;;;6.03;;
14001;SDS011;7076;51.280;12.584;2023-05-07T05:52:12;9.20;;;6.35;;
14001;SDS011;7076;51.280;12.584;2023-05-07T05:57:17;9.65;;;8.25;;
14001;SDS011;7076;51.280;12.584;2023-05-07T06:02:20;9.70;;;7.32;;
14001;SDS011;7076;51.280;12.584;2023-05-07T06:07:23;7.38;;;6.60;;
14001;SDS011;7076;51.280;12.584;2023-05-07T06:12:27;9.10;;;7.13;;
14001;SDS011;7076;51.280;12.584;2023-05-07T06:17:30;9.15;;;6.57;;
14001;SDS011;7076;51.280;12.584;2023-05-07T06:22:33;10.02;;;6.93;;
14001;SDS011;7076;51.280;12.584;2023-05-07T06:27:38;8.52;;;6.63;;
14001;SDS011;7076;51.280;12.584;2023-05-07T06:32:42;7.15;;;6.40;;
14001;SDS011;7076;51.280;12.584;2023-05-07T06:37:46;7.38;;;5.75;;
14001;SDS011;7076;51.280;12.584;2023-05-07T06:42:56;8.80;;;6.55;;
14001;SDS011;7076;51.280;12.584;2023-05-07T06:48:22;6.75;;;6.05;;
14001;SDS011;7076;51.280;12.584;2023-05-07T06:53:32;8.55;;;6.05;;
14001;SDS011;7076;51.280;12.584;2023-05-07T06:58:37;6.18;;;5.57;;
14001;SDS011;7076;51.280;12.584;2023-05-07T07:03:41;7.28;;;5.85;;
14001;SDS011;7076;51.280;12.584;2023-05-07T07:08:43;8.15;;;5.85;;
14001;SDS011;7076;51.280;12.584;2023-05-07T07:13:50;6.55;;;5.68;;
14001;SDS011;7076;51.280;12.584;2023-05-07T07:18:55;6.90;;;5.60;;
14001;SDS011;7076;51.280;12.584;2023-05-07T07:23:58;7.07;;;6.30;;
14001;SDS011;7076;51.280;12.584;2023-05-07T07:29:03;6.40;;;5.72;;
14001;SDS011;7076;51.280;12.584;2023-05-07T07:34:06;6.07;;;5.40;;
14001;SDS011;7076;51.280;12.584;2023-05-07T07:39:09;6.00;;;5.40;;
14001;SDS011;7076;51.280;12.584;2023-05-07T07:44:13;6.35;;;5.63;;
14001;SDS011;7076;51.280;12.584;2023-05-07T07:49:22;6.80;;;4.88;;
14001;SDS011;7076;51.280;12.584;2023-05-07T07:54:25;6.40;;;5.35;;
14001;SDS011;7076;51.280;12.584;2023-05-07T07:59:30;4.80;;;4.30;;
14001;SDS011;7076;51.280;12.584;2023-05-07T08:04:32;4.80;;;4.32;;
14001;SDS011;7076;51.280;12.584;2023-05-07T08:09:38;4.82;;;4.05;;
14001;SDS011;7076;51.280;12.584;2023-05-07T08:14:44;4.68;;;4.10;;
14001;SDS011;7076;51.280;12.584;2023-05-07T08:19:47;4.25;;;3.72;;
14001;SDS011;7076;51.280;12.584;2023-05-07T08:24:50;4.28;;;3.88;;
14001;SDS011;7076;51.280;12.584;2023-05-07T08:29:56;5.05;;;3.83;;
14001;SDS011;7076;51.280;12.584;2023-05-07T08:34:59;4.40;;;4.00;;
14001;SDS011;7076;51.280;12.584;2023-05-07T08:40:02;3.70;;;3.38;;
14001;SDS011;7076;51.280;12.584;2023-05-07T08:45:12;3.70;;;3.40;;
14001;SDS011;7076;51.280;12.584;2023-05-07T08:50:18;4.07;;;3.67;;
14001;SDS011;7076;51.280;12.584;2023-05-07T08:55:23;4.50;;;4.10;;
14001;SDS011;7076;51.280;12.584;2023-05-07T09:00:28;4.55;;;4.15;;
14001;SDS011;7076;51.280;12.584;2023-05-07T09:05:32;4.60;;;4.00;;
14001;SDS011;7076;51.280;12.584;2023-05-07T09:10:36;5.00;;;4.10;;
14001;SDS011;7076;51.280;12.584;2023-05-07T09:15:41;4.05;;;3.65;;
14001;SDS011;7076;51.280;12.584;2023-05-07T09:20:44;3.70;;;3.30;;
14001;SDS011;7076;51.280;12.584;2023-05-07T09:25:47;3.58;;;3.25;;
14001;SDS011;7076;51.280;12.584;2023-05-07T09:31:02;3.15;;;2.85;;
14001;SDS011;7076;51.280;12.584;2023-05-07T09:36:05;5.90;;;3.45;;
14001;SDS011;7076;51.280;12.584;2023-05-07T09:41:11;3.53;;;3.22;;
14001;SDS011;7076;51.280;12.584;2023-05-07T09:46:29;4.43;;;3.47;;
14001;SDS011;7076;51.280;12.584;2023-05-07T09:51:38;3.47;;;3.17;;
14001;SDS011;7076;51.280;12.584;2023-05-07T09:56:42;4.25;;;3.25;;
14001;SDS011;7076;51.280;12.584;2023-05-07T10:01:48;3.10;;;2.80;;
14001;SDS011;7076;51.280;12.584;2023-05-07T10:06:51;3.05;;;2.75;;
14001;SDS011;7076;51.280;12.584;2023-05-07T10:11:55;3.35;;;3.05;;
14001;SDS011;7076;51.280;12.584;2023-05-07T10:17:00;3.20;;;2.90;;
14001;SDS011;7076;51.280;12.584;2023-05-07T10:22:05;3.30;;;3.00;;
14001;SDS011;7076;51.280;12.584;2023-05-07T10:27:14;2.97;;;2.72;;
14001;SDS011;7076;51.280;12.584;2023-05-07T10:32:30;3.08;;;2.78;;
14001;SDS011;7076;51.280;12.584;2023-05-07T10:37:35;2.47;;;2.28;;
14001;SDS011;7076;51.280;12.584;2023-05-07T10:42:38;2.83;;;2.63;;
14001;SDS011;7076;51.280;12.584;2023-05-07T10:53:24;3.40;;;3.10;;
14001;SDS011;7076;51.280;12.584;2023-05-07T10:58:46;3.45;;;3.00;;
14001;SDS011;7076;51.280;12.584;2023-05-07T11:04:13;2.90;;;2.70;;
14001;SDS011;7076;51.280;12.584;2023-05-07T11:14:50;3.80;;;3.40;;
14001;SDS011;7076;51.280;12.584;2023-05-07T11:20:05;3.85;;;3.17;;
14001;SDS011;7076;51.280;12.584;2023-05-07T11:25:19;4.18;;;3.78;;
14001;SDS011;7076;51.280;12.584;2023-05-07T11:30:30;5.13;;;4.15;;
14001;SDS011;7076;51.280;12.584;2023-05-07T11:35:34;4.30;;;3.58;;
14001;SDS011;7076;51.280;12.584;2023-05-07T11:40:48;6.07;;;4.35;;
14001;SDS011;7076;51.280;12.584;2023-05-07T11:45:52;4.82;;;4.30;;
14001;SDS011;7076;51.280;12.584;2023-05-07T11:51:00;6.65;;;3.80;;
14001;SDS011;7076;51.280;12.584;2023-05-07T11:56:05;4.47;;;3.95;;
14001;SDS011;7076;51.280;12.584;2023-05-07T12:01:14;4.75;;;4.22;;
14001;SDS011;7076;51.280;12.584;2023-05-07T12:06:17;4.32;;;3.92;;
14001;SDS011;7076;51.280;12.584;2023-05-07T12:11:22;7.20;;;4.47;;
14001;SDS011;7076;51.280;12.584;2023-05-07T12:16:27;4.35;;;3.95;;
14001;SDS011;7076;51.280;12.584;2023-05-07T12:21:31;4.25;;;3.72;;
14001;SDS011;7076;51.280;12.584;2023-05-07T12:26:36;4.68;;;4.10;;
14001;SDS011;7076;51.280;12.584;2023-05-07T12:31:43;4.20;;;3.80;;
14001;SDS011;7076;51.280;12.584;2023-05-07T12:36:48;8.93;;;6.65;;
14001;SDS011;7076;51.280;12.584;2023-05-07T12:41:53;3.78;;;3.42;;
14001;SDS011;7076;51.280;12.584;2023-05-07T12:46:57;4.57;;;4.10;;
14001;SDS011;7076;51.280;12.584;2023-05-07T12:52:01;4.55;;;4.15;;
14001;SDS011;7076;51.280;12.584;2023-05-07T12:57:04;4.40;;;3.83;;
14001;SDS011;7076;51.280;12.584;2023-05-07T13:02:09;4.78;;;4.20;;
14001;SDS011;7076;51.280;12.584;2023-05-07T13:07:14;5.18;;;3.80;;
14001;SDS011;7076;51.280;12.584;2023-05-07T13:12:17;4.25;;;3.50;;
14001;SDS011;7076;51.280;12.584;2023-05-07T13:17:21;3.67;;;3.30;;
14001;SDS011;7076;51.280;12.584;2023-05-07T13:22:24;3.60;;;3.30;;
14001;SDS011;7076;51.280;12.584;2023-05-07T13:27:26;3.50;;;3.20;;
14001;SDS011;7076;51.280;12.584;2023-05-07T13:32:33;3.83;;;2.97;;
14001;SDS011;7076;51.280;12.584;2023-05-07T13:37:36;3.20;;;2.90;;
14001;SDS011;7076;51.280;12.584;2023-05-07T13:42:39;3.55;;;3.15;;
14001;SDS011;7076;51.280;12.584;2023-05-07T13:47:44;3.15;;;2.88;;
14001;SDS011;7076;51.280;12.584;2023-05-07T13:52:47;3.55;;;2.45;;
14001;SDS011;7076;51.280;12.584;2023-05-07T13:57:55;2.58;;;2.35;;
14001;SDS011;7076;51.280;12.584;2023-05-07T14:03:00;2.60;;;2.40;;
14001;SDS011;7076;51.280;12.584;2023-05-07T14:08:03;3.05;;;2.75;;
14001;SDS011;7076;51.280;12.584;2023-05-07T14:13:06;3.10;;;2.80;;
14001;SDS011;7076;51.280;12.584;2023-05-07T14:18:10;2.58;;;2.38;;
14001;SDS011;7076;51.280;12.584;2023-05-07T14:23:13;4.45;;;2.30;;
14001;SDS011;7076;51.280;12.584;2023-05-07T14:28:16;2.95;;;2.53;;
14001;SDS011;7076;51.280;12.584;2023-05-07T14:33:20;3.38;;;3.08;;
14001;SDS011;7076;51.280;12.584;2023-05-07T14:38:22;3.35;;;3.08;;
14001;SDS011;7076;51.280;12.584;2023-05-07T14:43:26;3.67;;;2.45;;
14001;SDS011;7076;51.280;12.584;2023-05-07T14:48:29;2.22;;;2.03;;
14001;SDS011;7076;51.280;12.584;2023-05-07T14:53:32;2.15;;;2.00;;
14001;SDS011;7076;51.280;12.584;2023-05-07T14:58:35;1.90;;;1.80;;
14001;SDS011;7076;51.280;12.584;2023-05-07T15:03:39;2.20;;;2.00;;
14001;SDS011;7076;51.280;12.584;2023-05-07T15:08:42;3.10;;;2.00;;
14001;SDS011;7076;51.280;12.584;2023-05-07T15:13:45;3.15;;;2.55;;
14001;SDS011;7076;51.280;12.584;2023-05-07T15:18:49;2.45;;;2.20;;
14001;SDS011;7076;51.280;12.584;2023-05-07T15:23:52;4.15;;;2.60;;
14001;SDS011;7076;51.280;12.584;2023-05-07T15:28:54;2.15;;;1.95;;
14001;SDS011;7076;51.280;12.584;2023-05-07T15:34:00;4.05;;;2.10;;
14001;SDS011;7076;51.280;12.584;2023-05-07T15:39:03;6.22;;;2.22;;
14001;SDS011;7076;51.280;12.584;2023-05-07T15:44:06;2.80;;;2.60;;
14001;SDS011;7076;51.280;12.584;2023-05-07T15:49:10;3.05;;;2.75;;
14001;SDS011;7076;51.280;12.584;2023-05-07T15:54:14;3.00;;;2.65;;
14001;SDS011;7076;51.280;12.584;2023-05-07T15:59:18;3.17;;;2.70;;
14001;SDS011;7076;51.280;12.584;2023-05-07T16:04:22;2.15;;;2.05;;
14001;SDS011;7076;51.280;12.584;2023-05-07T16:09:24;3.45;;;2.47;;
14001;SDS011;7076;51.280;12.584;2023-05-07T16:14:29;3.70;;;2.80;;
14001;SDS011;7076;51.280;12.584;2023-05-07T16:19:33;2.88;;;2.60;;
14001;SDS011;7076;51.280;12.584;2023-05-07T16:24:36;3.10;;;2.80;;
14001;SDS011;7076;51.280;12.584;2023-05-07T16:29:39;3.35;;;3.05;;
14001;SDS011;7076;51.280;12.584;2023-05-07T16:34:43;3.42;;;2.85;;
14001;SDS011;7076;51.280;12.584;2023-05-07T16:39:46;3.33;;;2.88;;
14001;SDS011;7076;51.280;12.584;2023-05-07T16:44:48;5.55;;;2.90;;
14001;SDS011;7076;51.280;12.584;2023-05-07T16:49:52;2.75;;;2.55;;
14001;SDS011;7076;51.280;12.584;2023-05-07T16:54:55;3.10;;;2.80;;
14001;SDS011;7076;51.280;12.584;2023-05-07T17:00:01;5.25;;;2.78;;
14001;SDS011;7076;51.280;12.584;2023-05-07T17:05:09;4.55;;;2.80;;
14001;SDS011;7076;51.280;12.584;2023-05-07T17:10:12;3.25;;;2.95;;
14001;SDS011;7076;51.280;12.584;2023-05-07T17:15:14;5.40;;;3.10;;
14001;SDS011;7076;51.280;12.584;2023-05-07T17:20:18;4.35;;;3.10;;
14001;SDS011;7076;51.280;12.584;2023-05-07T17:25:21;3.53;;;3.15;;
14001;SDS011;7076;51.280;12.584;2023-05-07T17:30:24;3.42;;;3.13;;
14001;SDS011;7076;51.280;12.584;2023-05-07T17:35:28;3.33;;;3.03;;
14001;SDS011;7076;51.280;12.584;2023-05-07T17:40:32;5.75;;;3.45;;
14001;SDS011;7076;51.280;12.584;2023-05-07T17:45:35;4.32;;;3.42;;
14001;SDS011;7076;51.280;12.584;2023-05-07T17:50:39;3.60;;;3.30;;
14001;SDS011;7076;51.280;12.584;2023-05-07T17:55:42;3.63;;;3.30;;
14001;SDS011;7076;51.280;12.584;2023-05-07T18:00:45;4.28;;;3.78;;
14001;SDS011;7076;51.280;12.584;2023-05-07T18:05:49;3.50;;;3.20;;
14001;SDS011;7076;51.280;12.584;2023-05-07T18:10:52;4.15;;;3.75;;
14001;SDS011;7076;51.280;12.584;2023-05-07T18:15:55;4.38;;;3.97;;
14001;SDS011;7076;51.280;12.584;2023-05-07T18:20:59;5.00;;;4.07;;
14001;SDS011;7076;51.280;12.584;2023-05-07T18:26:01;4.82;;;3.72;;
14001;SDS011;7076;51.280;12.584;2023-05-07T18:31:08;6.25;;;3.92;;
14001;SDS011;7076;51.280;12.584;2023-05-07T18:36:13;4.43;;;4.03;;
14001;SDS011;7076;51.280;12.584;2023-05-07T18:41:15;6.45;;;3.90;;
14001;SDS011;7076;51.280;12.584;2023-05-07T18:46:18;4.57;;;4.07;;
14001;SDS011;7076;51.280;12.584;2023-05-07T18:51:22;4.47;;;4.07;;
14001;SDS011;7076;51.280;12.584;2023-05-07T18:56:24;7.47;;;3.80;;
14001;SDS011;7076;51.280;12.584;2023-05-07T19:01:27;4.55;;;4.00;;
14001;SDS011;7076;51.280;12.584;2023-05-07T19:06:31;4.70;;;4.30;;
14001;SDS011;7076;51.280;12.584;2023-05-07T19:11:34;4.32;;;3.92;;
14001;SDS011;7076;51.280;12.584;2023-05-07T19:16:36;5.13;;;4.40;;
14001;SDS011;7076;51.280;12.584;2023-05-07T19:21:44;4.85;;;4.35;;
14001;SDS011;7076;51.280;12.584;2023-05-07T19:26:53;4.20;;;3.80;;
14001;SDS011;7076;51.280;12.584;2023-05-07T19:31:56;7.40;;;6.63;;
14001;SDS011;7076;51.280;12.584;2023-05-07T19:37:00;4.63;;;4.00;;
14001;SDS011;7076;51.280;12.584;2023-05-07T19:42:02;4.28;;;3.88;;
14001;SDS011;7076;51.280;12.584;2023-05-07T19:47:05;4.45;;;4.05;;
14001;SDS011;7076;51.280;12.584;2023-05-07T19:52:11;4.10;;;3.75;;
14001;SDS011;7076;51.280;12.584;2023-05-07T19:57:13;4.13;;;3.75;;
14001;SDS011;7076;51.280;12.584;2023-05-07T20:02:18;5.22;;;4.72;;
14001;SDS011;7076;51.280;12.584;2023-05-07T20:07:22;4.78;;;3.72;;
14001;SDS011;7076;51.280;12.584;2023-05-07T20:12:25;4.22;;;3.83;;
14001;SDS011;7076;51.280;12.584;2023-05-07T20:17:27;4.28;;;3.88;;
14001;SDS011;7076;51.280;12.584;2023-05-07T20:22:32;4.07;;;3.67;;
14001;SDS011;7076;51.280;12.584;2023-05-07T20:27:34;4.30;;;3.90;;
14001;SDS011;7076;51.280;12.584;2023-05-07T20:32:40;4.38;;;3.97;;
14001;SDS011;7076;51.280;12.584;2023-05-07T20:37:45;6.45;;;5.05;;
14001;SDS011;7076;51.280;12.584;2023-05-07T20:42:48;4.43;;;3.58;;
14001;SDS011;7076;51.280;12.584;2023-05-07T20:47:51;7.72;;;4.07;;
14001;SDS011;7076;51.280;12.584;2023-05-07T20:52:55;4.45;;;4.05;;
14001;SDS011;7076;51.280;12.584;2023-05-07T20:57:57;4.70;;;3.70;;
14001;SDS011;7076;51.280;12.584;2023-05-07T21:03:00;4.40;;;3.88;;
14001;SDS011;7076;51.280;12.584;2023-05-07T21:08:04;4.15;;;3.75;;
14001;SDS011;7076;51.280;12.584;2023-05-07T21:13:07;6.57;;;4.40;;
14001;SDS011;7076;51.280;12.584;2023-05-07T21:18:10;4.38;;;3.40;;
14001;SDS011;7076;51.280;12.584;2023-05-07T21:23:14;5.10;;;4.07;;
14001;SDS011;7076;51.280;12.584;2023-05-07T21:28:17;4.45;;;4.05;;
14001;SDS011;7076;51.280;12.584;2023-05-07T21:33:19;4.20;;;3.70;;
14001;SDS011;7076;51.280;12.584;2023-05-07T21:38:23;4.90;;;4.03;;
14001;SDS011;7076;51.280;12.584;2023-05-07T21:43:26;5.60;;;4.30;;
14001;SDS011;7076;51.280;12.584;2023-05-07T21:48:28;5.88;;;4.00;;
14001;SDS011;7076;51.280;12.584;2023-05-07T21:53:33;7.40;;;4.72;;
14001;SDS011;7076;51.280;12.584;2023-05-07T21:58:36;5.43;;;4.53;;
14001;SDS011;7076;51.280;12.584;2023-05-07T22:03:38;4.65;;;4.13;;
14001;SDS011;7076;51.280;12.584;2023-05-07T22:08:42;4.55;;;3.97;;
14001;SDS011;7076;51.280;12.584;2023-05-07T22:13:45;4.45;;;4.05;;
14001;SDS011;7076;51.280;12.584;2023-05-07T22:18:48;4.93;;;4.53;;
14001;SDS011;7076;51.280;12.584;2023-05-07T22:23:51;4.93;;;4.38;;
14001;SDS011;7076;51.280;12.584;2023-05-07T22:28:54;5.65;;;4.38;;
14001;SDS011;7076;51.280;12.584;2023-05-07T22:33:57;4.50;;;4.10;;
14001;SDS011;7076;51.280;12.584;2023-05-07T22:39:01;4.72;;;4.13;;
14001;SDS011;7076;51.280;12.584;2023-05-07T22:44:07;4.53;;;4.13;;
14001;SDS011;7076;51.280;12.584;2023-05-07T22:49:09;4.82;;;4.22;;
14001;SDS011;7076;51.280;12.584;2023-05-07T22:54:13;5.50;;;4.30;;
14001;SDS011;7076;51.280;12.584;2023-05-07T22:59:16;5.53;;;3.97;;
14001;SDS011;7076;51.280;12.584;2023-05-07T23:04:19;4.50;;;4.00;;
14001;SDS011;7076;51.280;12.584;2023-05-07T23:09:22;4.90;;;3.92;;
14001;SDS011;7076;51.280;12.584;2023-05-07T23:14:25;4.78;;;3.97;;
14001;SDS011;7076;51.280;12.584;2023-05-07T23:19:28;3.88;;;3.47;;
14001;SDS011;7076;51.280;12.584;2023-05-07T23:24:32;3.92;;;3.53;;
14001;SDS011;7076;51.280;12.584;2023-05-07T23:29:35;4.28;;;3.88;;
14001;SDS011;7076;51.280;12.584;2023-05-07T23:34:37;3.90;;;3.50;;
14001;SDS011;7076;51.280;12.584;2023-05-07T23:39:41;6.07;;;4.00;;
14001;SDS011;7076;51.280;12.584;2023-05-07T23:44:44;4.07;;;3.60;;
14001;SDS011;7076;51.280;12.584;2023-05-07T23:49:46;4.57;;;3.53;;
14001;SDS011;7076;51.280;12.584;2023-05-07T23:54:51;3.90;;;3.47;;
14001;SDS011;7076;51.280;12.584;2023-05-07T23:59:53;3.75;;;3.35;;
